Time;durP1;ratioP1;P1;durP2;ratioP2;P2;SDS_P1;SDS_P2;PMS_P1;PMS_P2;Temp;Humidity;BMP_temperature;BMP_pressure;BME280_temperature;BME280_humidity;BME280_pressure;Samples;Min_cycle;Max_cycle;Signal;HPM_P1;HPM_P2
2021/10/30 01:12:15;;;;;;;1999.90;999.90;;;;;;;;;;5989983;23;20191;-68
2021/10/30 01:15:03;;;;;;;1999.90;999.90;;;;;;;;;;4939323;29;20708;-68
2021/10/30 01:17:48;;;;;;;1999.90;999.90;;;;;;;;;;4936697;29;20235;-68
2021/10/30 01:20:34;;;;;;;1999.90;999.90;;;;;;;;;;4938130;29;20305;-68
2021/10/30 01:23:19;;;;;;;1999.90;999.90;;;;;;;;;;4934372;29;20249;-68
2021/10/30 01:26:04;;;;;;;1999.90;999.90;;;;;;;;;;4931881;29;20206;-68
2021/10/30 01:28:50;;;;;;;1999.90;999.90;;;;;;;;;;4936833;29;20221;-67
2021/10/30 01:31:35;;;;;;;1999.90;999.90;;;;;;;;;;4933992;29;20213;-65
2021/10/30 01:34:25;;;;;;;1999.90;999.90;;;;;;;;;;4951858;29;20795;-68
2021/10/30 01:37:12;;;;;;;1999.90;999.90;;;;;;;;;;4945673;29;20205;-68
2021/10/30 01:39:57;;;;;;;1999.90;999.90;;;;;;;;;;4938341;29;20218;-68
2021/10/30 01:42:42;;;;;;;1999.90;999.90;;;;;;;;;;4932002;29;20506;-68
2021/10/30 01:45:27;;;;;;;1999.90;999.90;;;;;;;;;;4933560;29;20217;-69
2021/10/30 01:48:12;;;;;;;1999.90;999.90;;;;;;;;;;4924073;29;20222;-67
2021/10/30 01:50:57;;;;;;;1999.90;999.90;;;;;;;;;;4933828;29;20202;-68
2021/10/30 01:53:43;;;;;;;1999.90;999.90;;;;;;;;;;4934689;29;20723;-68
2021/10/30 01:56:28;;;;;;;1999.90;999.90;;;;;;;;;;4930118;29;20280;-68
2021/10/30 01:59:13;;;;;;;1999.90;999.90;;;;;;;;;;4937617;29;20208;-67
2021/10/30 02:01:58;;;;;;;1999.90;999.90;;;;;;;;;;4946515;29;20213;-68
2021/10/30 02:04:43;;;;;;;1999.90;999.90;;;;;;;;;;4953042;29;20412;-68
2021/10/30 02:07:28;;;;;;;1999.90;999.90;;;;;;;;;;4952928;29;20216;-68
2021/10/30 02:10:15;;;;;;;1999.90;999.90;;;;;;;;;;4953413;29;20212;-68
2021/10/30 02:13:00;;;;;;;1999.90;999.90;;;;;;;;;;4952951;29;20249;-68
2021/10/30 02:15:45;;;;;;;1999.90;999.90;;;;;;;;;;4952757;28;20591;-68
2021/10/30 02:18:30;;;;;;;1999.90;999.90;;;;;;;;;;4934128;29;20334;-68
2021/10/30 02:21:15;;;;;;;1999.90;999.90;;;;;;;;;;4914278;29;20226;-66
2021/10/30 02:23:59;;;;;;;1999.90;999.90;;;;;;;;;;4914775;29;20370;-67
2021/10/30 02:26:46;;;;;;;1999.90;999.90;;;;;;;;;;4914885;29;20210;-68
2021/10/30 02:29:31;;;;;;;1999.90;999.90;;;;;;;;;;4914940;29;20305;-68
2021/10/30 02:32:16;;;;;;;1999.90;999.90;;;;;;;;;;4914383;29;20275;-68
2021/10/30 02:35:00;;;;;;;1999.90;999.90;;;;;;;;;;4914360;29;20711;-68
2021/10/30 02:37:45;;;;;;;1999.90;999.90;;;;;;;;;;4914554;29;20210;-68
2021/10/30 02:40:31;;;;;;;1999.90;999.90;;;;;;;;;;4914709;29;20218;-68
2021/10/30 02:43:17;;;;;;;1999.90;999.90;;;;;;;;;;4914337;29;20310;-68
2021/10/30 02:46:02;;;;;;;1999.90;999.90;;;;;;;;;;4914274;29;20210;-68
2021/10/30 02:48:47;;;;;;;1999.90;999.90;;;;;;;;;;4914631;29;20206;-68
2021/10/30 02:51:32;;;;;;;1999.90;999.90;;;;;;;;;;4914502;29;20213;-68
2021/10/30 02:54:17;;;;;;;1999.90;999.90;;;;;;;;;;4914190;29;20233;-68
2021/10/30 02:57:02;;;;;;;1999.90;999.90;;;;;;;;;;4913959;29;20749;-68
2021/10/30 02:59:49;;;;;;;1999.90;999.90;;;;;;;;;;4917690;29;20626;-67
2021/10/30 03:02:34;;;;;;;1999.90;999.90;;;;;;;;;;4914146;29;20233;-68
2021/10/30 03:05:19;;;;;;;1999.90;999.90;;;;;;;;;;4913653;29;20746;-68
2021/10/30 03:08:04;;;;;;;1999.90;999.90;;;;;;;;;;4914010;29;20689;-68
2021/10/30 03:10:49;;;;;;;1999.90;999.90;;;;;;;;;;4914432;29;20226;-68
2021/10/30 03:13:34;;;;;;;1999.90;999.90;;;;;;;;;;4913548;29;20253;-68
2021/10/30 03:16:20;;;;;;;1999.90;999.90;;;;;;;;;;4913320;29;20301;-68
2021/10/30 03:19:05;;;;;;;1999.90;999.90;;;;;;;;;;4917332;29;20747;-68
2021/10/30 03:21:50;;;;;;;1999.90;999.90;;;;;;;;;;4933135;29;20209;-68
2021/10/30 03:24:35;;;;;;;1999.90;999.90;;;;;;;;;;4921944;29;20706;-68
2021/10/30 03:27:20;;;;;;;1999.90;999.90;;;;;;;;;;4913744;29;20202;-67
2021/10/30 03:30:06;;;;;;;1999.90;999.90;;;;;;;;;;4917091;29;20221;-68
2021/10/30 03:32:53;;;;;;;1999.90;999.90;;;;;;;;;;4917199;29;20294;-68
2021/10/30 03:35:38;;;;;;;1999.90;999.90;;;;;;;;;;4935301;29;20314;-67
2021/10/30 03:38:23;;;;;;;1999.90;999.90;;;;;;;;;;4932976;29;20217;-68
2021/10/30 03:41:08;;;;;;;1999.90;999.90;;;;;;;;;;4917623;29;20262;-68
2021/10/30 03:43:53;;;;;;;1999.90;999.90;;;;;;;;;;4916790;29;20600;-68
2021/10/30 03:46:37;;;;;;;1999.90;999.90;;;;;;;;;;4917220;29;20701;-68
2021/10/30 03:49:24;;;;;;;1999.90;999.90;;;;;;;;;;4918510;29;20332;-68
2021/10/30 03:52:09;;;;;;;1999.90;999.90;;;;;;;;;;4917387;29;20213;-68
2021/10/30 03:54:54;;;;;;;1999.90;999.90;;;;;;;;;;4916833;29;20221;-68
2021/10/30 03:57:39;;;;;;;1999.90;999.90;;;;;;;;;;4916561;29;20306;-67
2021/10/30 04:00:24;;;;;;;1999.90;999.90;;;;;;;;;;4917295;29;20251;-68
2021/10/30 04:03:11;;;;;;;1999.90;999.90;;;;;;;;;;4916530;29;20246;-68
2021/10/30 04:05:57;;;;;;;1999.90;999.90;;;;;;;;;;4916717;29;20206;-68
2021/10/30 04:08:43;;;;;;;1999.90;999.90;;;;;;;;;;4917055;29;20218;-68
2021/10/30 04:11:28;;;;;;;1999.90;999.90;;;;;;;;;;4916840;29;20301;-68
2021/10/30 04:14:13;;;;;;;1999.90;999.90;;;;;;;;;;4916492;29;20237;-68
2021/10/30 04:16:58;;;;;;;1999.90;999.90;;;;;;;;;;4916397;29;20244;-68
2021/10/30 04:19:43;;;;;;;1999.90;999.90;;;;;;;;;;4923720;29;20439;-68
2021/10/30 04:22:31;;;;;;;1999.90;999.90;;;;;;;;;;4915924;29;20249;-67
2021/10/30 04:25:16;;;;;;;1999.90;999.90;;;;;;;;;;4916888;29;20345;-68
2021/10/30 04:28:01;;;;;;;1999.90;999.90;;;;;;;;;;4916704;29;20598;-68
2021/10/30 04:30:46;;;;;;;1999.90;999.90;;;;;;;;;;4916813;29;20712;-68
2021/10/30 04:33:31;;;;;;;1999.90;999.90;;;;;;;;;;4926912;29;20639;-68
2021/10/30 04:36:17;;;;;;;1999.90;999.90;;;;;;;;;;4935144;29;20852;-68
2021/10/30 04:39:04;;;;;;;1999.90;999.90;;;;;;;;;;4916350;29;20220;-68
2021/10/30 04:41:49;;;;;;;1999.90;999.90;;;;;;;;;;4916163;29;21100;-68
2021/10/30 04:44:34;;;;;;;1999.90;999.90;;;;;;;;;;4916191;29;20258;-68
2021/10/30 04:47:19;;;;;;;1999.90;999.90;;;;;;;;;;4915789;29;20206;-68
2021/10/30 04:50:04;;;;;;;1999.90;999.90;;;;;;;;;;4928938;29;20718;-68
2021/10/30 04:52:49;;;;;;;1999.90;999.90;;;;;;;;;;4922772;29;20390;-68
2021/10/30 04:55:35;;;;;;;1999.90;999.90;;;;;;;;;;4916213;29;20214;-68
2021/10/30 04:58:20;;;;;;;1999.90;999.90;;;;;;;;;;4916194;29;20214;-68
2021/10/30 05:01:05;;;;;;;1999.90;999.90;;;;;;;;;;4918491;29;20210;-68
2021/10/30 05:03:50;;;;;;;1999.90;999.90;;;;;;;;;;4921282;29;20726;-68
2021/10/30 05:06:35;;;;;;;1999.90;999.90;;;;;;;;;;4925287;29;20339;-68
2021/10/30 05:09:20;;;;;;;1999.90;999.90;;;;;;;;;;4930413;29;20288;-68
2021/10/30 05:12:07;;;;;;;1999.90;999.90;;;;;;;;;;4929299;29;20218;-68
2021/10/30 05:14:52;;;;;;;1999.90;999.90;;;;;;;;;;4928672;29;20215;-69
2021/10/30 05:17:37;;;;;;;1999.90;999.90;;;;;;;;;;4933965;29;20238;-68
2021/10/30 05:20:22;;;;;;;1999.90;999.90;;;;;;;;;;4934885;29;20210;-68
2021/10/30 05:23:07;;;;;;;1999.90;999.90;;;;;;;;;;4934343;29;20276;-67
2021/10/30 05:25:52;;;;;;;1999.90;999.90;;;;;;;;;;4934277;29;20225;-69
2021/10/30 05:28:38;;;;;;;1999.90;999.90;;;;;;;;;;4934694;29;20410;-68
2021/10/30 05:31:24;;;;;;;1999.90;999.90;;;;;;;;;;4934531;29;20213;-66
2021/10/30 05:34:09;;;;;;;1999.90;999.90;;;;;;;;;;4933761;29;20226;-68
2021/10/30 05:36:54;;;;;;;1999.90;999.90;;;;;;;;;;4933916;29;20722;-68
2021/10/30 05:39:40;;;;;;;1999.90;999.90;;;;;;;;;;4934141;29;20337;-68
2021/10/30 05:42:25;;;;;;;1999.90;999.90;;;;;;;;;;4934109;29;20228;-67
2021/10/30 05:45:12;;;;;;;1999.90;999.90;;;;;;;;;;4934367;29;20615;-68
2021/10/30 05:47:57;;;;;;;1999.90;999.90;;;;;;;;;;4933911;29;20597;-68
2021/10/30 05:50:41;;;;;;;1999.90;999.90;;;;;;;;;;4933943;29;20210;-68
2021/10/30 05:53:27;;;;;;;1999.90;999.90;;;;;;;;;;4936334;29;20309;-68
2021/10/30 05:56:12;;;;;;;1999.90;999.90;;;;;;;;;;4932833;29;20269;-66
2021/10/30 05:58:57;;;;;;;1999.90;999.90;;;;;;;;;;4945006;29;20732;-68
2021/10/30 06:01:44;;;;;;;1999.90;999.90;;;;;;;;;;4950244;29;20421;-68
2021/10/30 06:04:29;;;;;;;1999.90;999.90;;;;;;;;;;4944910;29;20219;-69
2021/10/30 06:07:14;;;;;;;1999.90;999.90;;;;;;;;;;4933163;29;20256;-69
2021/10/30 06:09:59;;;;;;;1999.90;999.90;;;;;;;;;;4933688;29;20685;-69
2021/10/30 06:12:44;;;;;;;1999.90;999.90;;;;;;;;;;4931185;29;20245;-69
2021/10/30 06:15:28;;;;;;;1999.90;999.90;;;;;;;;;;4915474;29;20220;-67
2021/10/30 06:18:15;;;;;;;1999.90;999.90;;;;;;;;;;4921159;29;20209;-68
2021/10/30 06:21:00;;;;;;;1999.90;999.90;;;;;;;;;;4930690;29;20450;-67
2021/10/30 06:23:46;;;;;;;1999.90;999.90;;;;;;;;;;4932875;29;20600;-68
2021/10/30 06:26:31;;;;;;;1999.90;999.90;;;;;;;;;;4929292;29;20209;-67
2021/10/30 06:29:16;;;;;;;1999.90;999.90;;;;;;;;;;4933753;29;20217;-68
2021/10/30 06:32:01;;;;;;;1999.90;999.90;;;;;;;;;;4928739;29;20217;-68
2021/10/30 06:34:47;;;;;;;1999.90;999.90;;;;;;;;;;4930530;29;20653;-68
2021/10/30 06:37:32;;;;;;;1999.90;999.90;;;;;;;;;;4928673;29;20262;-67
2021/10/30 06:40:17;;;;;;;1999.90;999.90;;;;;;;;;;4931892;29;20751;-69
2021/10/30 06:43:02;;;;;;;1999.90;999.90;;;;;;;;;;4930114;29;20795;-69
2021/10/30 06:45:47;;;;;;;1999.90;999.90;;;;;;;;;;4930310;29;20323;-69
2021/10/30 06:48:33;;;;;;;1999.90;999.90;;;;;;;;;;4933165;29;20249;-68
2021/10/30 06:51:20;;;;;;;1999.90;999.90;;;;;;;;;;4931104;29;20210;-68
2021/10/30 06:54:05;;;;;;;1999.90;999.90;;;;;;;;;;4913709;29;20441;-68
2021/10/30 06:56:50;;;;;;;1999.90;999.90;;;;;;;;;;4918283;29;20245;-69
2021/10/30 06:59:36;;;;;;;1999.90;999.90;;;;;;;;;;4927648;29;20213;-67
2021/10/30 07:02:21;;;;;;;1999.90;999.90;;;;;;;;;;4925935;29;20444;-68
2021/10/30 07:05:07;;;;;;;1999.90;999.90;;;;;;;;;;4929229;29;20214;-66
2021/10/30 07:07:53;;;;;;;1999.90;999.90;;;;;;;;;;4917316;29;20205;-68
2021/10/30 07:10:38;;;;;;;1999.90;999.90;;;;;;;;;;4918038;29;20590;-69
2021/10/30 07:13:23;;;;;;;1999.90;999.90;;;;;;;;;;4934208;29;20245;-69
2021/10/30 07:16:09;;;;;;;1999.90;999.90;;;;;;;;;;4925487;29;20230;-70
2021/10/30 07:18:54;;;;;;;1999.90;999.90;;;;;;;;;;4927301;29;20227;-68
2021/10/30 07:21:39;;;;;;;1999.90;999.90;;;;;;;;;;4928283;29;20358;-68
2021/10/30 07:24:25;;;;;;;1999.90;999.90;;;;;;;;;;4917013;29;20233;-69
2021/10/30 07:27:11;;;;;;;1999.90;999.90;;;;;;;;;;4920393;29;20215;-69
2021/10/30 07:29:55;;;;;;;1999.90;999.90;;;;;;;;;;4927872;29;20298;-69
2021/10/30 07:32:40;;;;;;;1999.90;999.90;;;;;;;;;;4917307;29;20306;-69
2021/10/30 07:35:25;;;;;;;1999.90;999.90;;;;;;;;;;4917579;29;20259;-70
2021/10/30 07:38:10;;;;;;;1999.90;999.90;;;;;;;;;;4923474;29;20622;-70
2021/10/30 07:40:57;;;;;;;1999.90;999.90;;;;;;;;;;4922049;29;20342;-69
2021/10/30 07:43:41;;;;;;;1999.90;999.90;;;;;;;;;;4922009;29;20325;-69
2021/10/30 07:46:26;;;;;;;1999.90;999.90;;;;;;;;;;4918390;29;20566;-69
2021/10/30 07:49:11;;;;;;;1999.90;999.90;;;;;;;;;;4920447;29;20217;-69
2021/10/30 07:51:56;;;;;;;1999.90;999.90;;;;;;;;;;4920529;29;20222;-68
2021/10/30 07:54:41;;;;;;;1999.90;999.90;;;;;;;;;;4929237;29;20302;-68
2021/10/30 07:57:28;;;;;;;1999.90;999.90;;;;;;;;;;4935014;29;20687;-69
2021/10/30 08:00:13;;;;;;;1999.90;999.90;;;;;;;;;;4933042;29;20211;-69
2021/10/30 08:02:58;;;;;;;1999.90;999.90;;;;;;;;;;4931607;29;20234;-69
2021/10/30 08:05:43;;;;;;;1999.90;999.90;;;;;;;;;;4935308;29;20698;-69
2021/10/30 08:08:27;;;;;;;1999.90;999.90;;;;;;;;;;4934732;29;20206;-69
2021/10/30 08:11:13;;;;;;;1999.90;999.90;;;;;;;;;;4934694;29;20216;-69
2021/10/30 08:13:59;;;;;;;1999.90;999.90;;;;;;;;;;4934378;29;20422;-69
2021/10/30 08:16:44;;;;;;;1999.90;999.90;;;;;;;;;;4925362;29;20227;-69
2021/10/30 08:19:29;;;;;;;1999.90;999.90;;;;;;;;;;4928382;29;20708;-69
2021/10/30 08:22:14;;;;;;;1999.90;999.90;;;;;;;;;;4921473;29;20309;-69
2021/10/30 08:24:59;;;;;;;1999.90;999.90;;;;;;;;;;4932091;29;20225;-68
2021/10/30 08:27:44;;;;;;;1999.90;999.90;;;;;;;;;;4935532;29;20205;-68
2021/10/30 08:30:30;;;;;;;1999.90;999.90;;;;;;;;;;4933646;29;20213;-69
2021/10/30 08:33:15;;;;;;;1999.90;999.90;;;;;;;;;;4915860;29;20754;-68
2021/10/30 08:36:00;;;;;;;1999.90;999.90;;;;;;;;;;4920818;29;20227;-69
2021/10/30 08:38:44;;;;;;;1999.90;999.90;;;;;;;;;;4916422;29;20306;-69
2021/10/30 08:41:30;;;;;;;1999.90;999.90;;;;;;;;;;4915767;29;20904;-69
2021/10/30 08:44:15;;;;;;;1999.90;999.90;;;;;;;;;;4932184;29;20231;-69
2021/10/30 08:47:02;;;;;;;1999.90;999.90;;;;;;;;;;4935168;29;20212;-69
2021/10/30 08:49:47;;;;;;;1999.90;999.90;;;;;;;;;;4935234;29;20258;-69
2021/10/30 08:52:32;;;;;;;1999.90;999.90;;;;;;;;;;4935044;29;20826;-69
2021/10/30 08:55:17;;;;;;;1999.90;999.90;;;;;;;;;;4922704;29;20214;-69
2021/10/30 08:58:05;;;;;;;1999.90;999.90;;;;;;;;;;4915913;29;20310;-69
2021/10/30 09:00:51;;;;;;;1999.90;999.90;;;;;;;;;;4916235;29;20217;-69
2021/10/30 09:03:38;;;;;;;1999.90;999.90;;;;;;;;;;4927092;29;20250;-69
2021/10/30 09:06:31;;;;;;;1999.90;999.90;;;;;;;;;;4933201;29;20268;-69
2021/10/30 09:09:16;;;;;;;1999.90;999.90;;;;;;;;;;4934837;29;20219;-68
2021/10/30 09:12:03;;;;;;;1999.90;999.90;;;;;;;;;;4915944;29;20331;-68
2021/10/30 09:14:48;;;;;;;1999.90;999.90;;;;;;;;;;4915789;29;20707;-69
2021/10/30 09:17:33;;;;;;;1999.90;999.90;;;;;;;;;;4934265;29;20243;-69
2021/10/30 09:20:19;;;;;;;1999.90;999.90;;;;;;;;;;4919156;29;20212;-68
2021/10/30 09:23:08;;;;;;;1999.90;999.90;;;;;;;;;;4915437;29;20306;-68
2021/10/30 09:25:56;;;;;;;1999.90;999.90;;;;;;;;;;4915094;29;20211;-67
2021/10/30 09:28:44;;;;;;;1999.90;999.90;;;;;;;;;;4915356;29;20219;-69
2021/10/30 09:31:29;;;;;;;1999.90;999.90;;;;;;;;;;4915200;29;20642;-70
2021/10/30 09:34:26;;;;;;;1999.90;999.90;;;;;;;;;;4914682;29;20233;-76
2021/10/30 09:48:00;;;;;;;1999.90;999.90;;;;;;;;;;4917462;29;20220;-71
2021/10/30 09:50:45;;;;;;;1999.90;999.90;;;;;;;;;;4920862;29;20214;-71
2021/10/30 09:53:32;;;;;;;1999.90;999.90;;;;;;;;;;4916064;29;20244;-71
2021/10/30 09:56:17;;;;;;;1999.90;999.90;;;;;;;;;;4914497;29;20485;-71
2021/10/30 09:59:02;;;;;;;1999.90;999.90;;;;;;;;;;4914827;29;20616;-71
2021/10/30 10:01:48;;;;;;;1999.90;999.90;;;;;;;;;;4932318;29;20224;-71
2021/10/30 10:04:36;;;;;;;1999.90;999.90;;;;;;;;;;4933704;29;20218;-71
2021/10/30 10:07:22;;;;;;;1999.90;999.90;;;;;;;;;;4933442;29;20208;-71
2021/10/30 10:10:08;;;;;;;1999.90;999.90;;;;;;;;;;4933895;29;20209;-71
2021/10/30 10:12:55;;;;;;;1999.90;999.90;;;;;;;;;;4933435;29;20291;-71
2021/10/30 10:15:40;;;;;;;1999.90;999.90;;;;;;;;;;4933091;29;20210;-71
2021/10/30 10:18:25;;;;;;;1999.90;999.90;;;;;;;;;;4933693;29;20224;-71
2021/10/30 10:21:13;;;;;;;1999.90;999.90;;;;;;;;;;4934003;29;20227;-70
2021/10/30 10:23:59;;;;;;;1999.90;999.90;;;;;;;;;;4933709;29;20733;-71
2021/10/30 10:26:47;;;;;;;1999.90;999.90;;;;;;;;;;4933540;29;20242;-71
2021/10/30 10:29:33;;;;;;;1999.90;999.90;;;;;;;;;;4933865;29;20593;-71
2021/10/30 10:32:20;;;;;;;1999.90;999.90;;;;;;;;;;4931345;29;20703;-70
2021/10/30 10:35:06;;;;;;;1999.90;999.90;;;;;;;;;;4923059;29;20220;-71
2021/10/30 10:37:52;;;;;;;1999.90;999.90;;;;;;;;;;4929122;29;20233;-71
2021/10/30 10:40:38;;;;;;;1999.90;999.90;;;;;;;;;;4922325;29;21684;-71
2021/10/30 10:43:38;;;;;;;1999.90;999.90;;;;;;;;;;4923160;29;20737;-71
2021/10/30 10:46:23;;;;;;;1999.90;999.90;;;;;;;;;;4936474;29;20219;-71
2021/10/30 10:49:19;;;;;;;1999.90;999.90;;;;;;;;;;4949498;29;20226;-72
2021/10/30 10:52:11;;;;;;;1999.90;999.90;;;;;;;;;;4932741;29;20215;-71
2021/10/30 10:55:07;;;;;;;1999.90;999.90;;;;;;;;;;4932816;29;20211;-71
2021/10/30 10:57:52;;;;;;;1999.90;999.90;;;;;;;;;;4932074;29;20738;-71
2021/10/30 11:00:37;;;;;;;1999.90;999.90;;;;;;;;;;4930263;29;20352;-71
2021/10/30 11:03:26;;;;;;;1999.90;999.90;;;;;;;;;;4932543;29;20757;-71
2021/10/30 11:06:12;;;;;;;1999.90;999.90;;;;;;;;;;4913917;29;20326;-71
2021/10/30 11:09:09;;;;;;;1999.90;999.90;;;;;;;;;;4912513;29;20221;-70
2021/10/30 11:12:16;;;;;;;1999.90;999.90;;;;;;;;;;4914291;29;20208;-71
2021/10/30 11:15:05;;;;;;;1999.90;999.90;;;;;;;;;;4912925;29;20442;-70
2021/10/30 11:17:57;;;;;;;1999.90;999.90;;;;;;;;;;4913710;29;20228;-70
2021/10/30 11:20:44;;;;;;;1999.90;999.90;;;;;;;;;;4913459;29;20334;-71
2021/10/30 11:23:30;;;;;;;1999.90;999.90;;;;;;;;;;4932364;29;20750;-71
2021/10/30 11:26:17;;;;;;;1999.90;999.90;;;;;;;;;;4917425;29;20317;-71
2021/10/30 11:29:04;;;;;;;1999.90;999.90;;;;;;;;;;4932353;29;20574;-71
2021/10/30 11:31:52;;;;;;;1999.90;999.90;;;;;;;;;;4932188;29;20268;-71
2021/10/30 11:34:37;;;;;;;1999.90;999.90;;;;;;;;;;4930694;29;20303;-71
2021/10/30 11:37:22;;;;;;;1999.90;999.90;;;;;;;;;;4931816;29;20218;-70
2021/10/30 11:40:08;;;;;;;1999.90;999.90;;;;;;;;;;4932275;29;20581;-71
2021/10/30 11:42:55;;;;;;;1999.90;999.90;;;;;;;;;;4930537;29;20235;-71
2021/10/30 11:45:41;;;;;;;1999.90;999.90;;;;;;;;;;4931540;29;20209;-71
2021/10/30 11:48:35;;;;;;;1999.90;999.90;;;;;;;;;;4932272;29;20211;-72
2021/10/30 11:51:21;;;;;;;1999.90;999.90;;;;;;;;;;4949183;29;20222;-71
2021/10/30 11:54:06;;;;;;;1999.90;999.90;;;;;;;;;;4932737;29;20890;-72
2021/10/30 11:56:52;;;;;;;1999.90;999.90;;;;;;;;;;4934005;29;20293;-71
2021/10/30 11:59:37;;;;;;;1999.90;999.90;;;;;;;;;;4935012;29;20226;-71
2021/10/30 12:02:23;;;;;;;1999.90;999.90;;;;;;;;;;4935350;29;20304;-71
2021/10/30 12:05:12;;;;;;;1999.90;999.90;;;;;;;;;;4935452;29;20704;-71
2021/10/30 12:07:57;;;;;;;1999.90;999.90;;;;;;;;;;4929726;29;20217;-72
2021/10/30 12:10:45;;;;;;;1999.90;999.90;;;;;;;;;;4935955;29;20219;-71
2021/10/30 12:13:30;;;;;;;1999.90;999.90;;;;;;;;;;4927607;29;20240;-71
2021/10/30 12:16:15;;;;;;;1999.90;999.90;;;;;;;;;;4916610;29;20599;-71
2021/10/30 12:19:02;;;;;;;1999.90;999.90;;;;;;;;;;4918328;29;20297;-72
2021/10/30 12:21:47;;;;;;;1999.90;999.90;;;;;;;;;;4926426;29;20222;-72
2021/10/30 12:24:32;;;;;;;1999.90;999.90;;;;;;;;;;4918720;29;20619;-71
2021/10/30 12:27:17;;;;;;;1999.90;999.90;;;;;;;;;;4919901;29;20727;-72
2021/10/30 12:30:07;;;;;;;1999.90;999.90;;;;;;;;;;4916512;29;20273;-72
2021/10/30 12:32:52;;;;;;;1999.90;999.90;;;;;;;;;;4924749;29;20310;-72
2021/10/30 12:35:41;;;;;;;1999.90;999.90;;;;;;;;;;4933574;29;20418;-72
2021/10/30 12:38:26;;;;;;;1999.90;999.90;;;;;;;;;;4935040;29;20244;-72
2021/10/30 12:41:15;;;;;;;1999.90;999.90;;;;;;;;;;4935582;29;20341;-73
2021/10/30 12:44:02;;;;;;;1999.90;999.90;;;;;;;;;;4934835;29;20236;-72
2021/10/30 12:46:56;;;;;;;1999.90;999.90;;;;;;;;;;4922413;29;20209;-72
2021/10/30 12:49:43;;;;;;;1999.90;999.90;;;;;;;;;;4921994;29;20221;-73
2021/10/30 12:52:40;;;;;;;1999.90;999.90;;;;;;;;;;4934830;29;20318;-71
2021/10/30 12:55:25;;;;;;;1999.90;999.90;;;;;;;;;;4919573;29;20203;-72
2021/10/30 12:58:10;;;;;;;1999.90;999.90;;;;;;;;;;4916451;29;20571;-73
2021/10/30 13:00:54;;;;;;;1999.90;999.90;;;;;;;;;;4915530;29;20206;-72
2021/10/30 13:03:39;;;;;;;1999.90;999.90;;;;;;;;;;4915563;29;20310;-73
2021/10/30 13:06:26;;;;;;;1999.90;999.90;;;;;;;;;;4918720;29;20349;-72
2021/10/30 13:09:17;;;;;;;1999.90;999.90;;;;;;;;;;4931317;29;20567;-73
2021/10/30 13:12:03;;;;;;;1999.90;999.90;;;;;;;;;;4928526;29;20685;-72
2021/10/30 13:14:48;;;;;;;1999.90;999.90;;;;;;;;;;4915404;29;20209;-72
2021/10/30 13:17:33;;;;;;;1999.90;999.90;;;;;;;;;;4915287;29;20250;-72
2021/10/30 13:20:17;;;;;;;1999.90;999.90;;;;;;;;;;4931035;29;20815;-71
2021/10/30 13:23:02;;;;;;;1999.90;999.90;;;;;;;;;;4933327;29;20237;-72
2021/10/30 13:25:49;;;;;;;1999.90;999.90;;;;;;;;;;4923850;29;20430;-72
2021/10/30 13:28:33;;;;;;;1999.90;999.90;;;;;;;;;;4925793;29;20360;-72
2021/10/30 13:31:20;;;;;;;1999.90;999.90;;;;;;;;;;4929200;29;20217;-72
2021/10/30 13:34:05;;;;;;;1999.90;999.90;;;;;;;;;;4925622;29;20294;-72
2021/10/30 13:36:50;;;;;;;1999.90;999.90;;;;;;;;;;4923390;29;20346;-71
2021/10/30 13:39:35;;;;;;;1999.90;999.90;;;;;;;;;;4928986;29;20265;-72
2021/10/30 13:42:22;;;;;;;1999.90;999.90;;;;;;;;;;4932424;29;20330;-71
2021/10/30 13:45:07;;;;;;;1999.90;999.90;;;;;;;;;;4928345;29;20205;-72
2021/10/30 13:47:52;;;;;;;1999.90;999.90;;;;;;;;;;4930379;29;20213;-71
2021/10/30 13:50:37;;;;;;;1999.90;999.90;;;;;;;;;;4930424;29;20218;-71
2021/10/30 13:53:22;;;;;;;1999.90;999.90;;;;;;;;;;4926295;29;20732;-71
2021/10/30 13:56:07;;;;;;;1999.90;999.90;;;;;;;;;;4924974;29;20213;-71
2021/10/30 13:58:53;;;;;;;1999.90;999.90;;;;;;;;;;4928471;29;20614;-71
2021/10/30 14:01:38;;;;;;;1999.90;999.90;;;;;;;;;;4928686;29;20223;-71
2021/10/30 14:04:23;;;;;;;1999.90;999.90;;;;;;;;;;4929381;29;20907;-71
2021/10/30 14:07:08;;;;;;;1999.90;999.90;;;;;;;;;;4921636;29;20208;-71
2021/10/30 14:09:53;;;;;;;1999.90;999.90;;;;;;;;;;4930668;29;20266;-71
2021/10/30 14:12:38;;;;;;;1999.90;999.90;;;;;;;;;;4923794;29;21004;-72
2021/10/30 14:15:24;;;;;;;1999.90;999.90;;;;;;;;;;4923414;29;20281;-72
2021/10/30 14:18:09;;;;;;;1999.90;999.90;;;;;;;;;;4919138;29;20209;-72
2021/10/30 14:20:55;;;;;;;1999.90;999.90;;;;;;;;;;4922370;29;20206;-72
2021/10/30 14:23:40;;;;;;;1999.90;999.90;;;;;;;;;;4926791;29;20233;-72
2021/10/30 14:26:26;;;;;;;1999.90;999.90;;;;;;;;;;4914485;29;21270;-73
2021/10/30 14:29:11;;;;;;;1999.90;999.90;;;;;;;;;;4914746;29;20209;-73
2021/10/30 14:32:00;;;;;;;1999.90;999.90;;;;;;;;;;4914742;29;20297;-72
2021/10/30 14:34:45;;;;;;;1999.90;999.90;;;;;;;;;;4914823;29;20222;-72
2021/10/30 14:37:29;;;;;;;1999.90;999.90;;;;;;;;;;4914437;29;20288;-72
2021/10/30 14:40:14;;;;;;;1999.90;999.90;;;;;;;;;;4914315;29;20229;-73
2021/10/30 14:43:02;;;;;;;1999.90;999.90;;;;;;;;;;4913418;29;20977;-72
2021/10/30 14:45:49;;;;;;;1999.90;999.90;;;;;;;;;;4914202;29;20716;-73
2021/10/30 14:48:36;;;;;;;1999.90;999.90;;;;;;;;;;4914594;29;20213;-73
2021/10/30 14:51:23;;;;;;;1999.90;999.90;;;;;;;;;;4914951;29;20217;-73
2021/10/30 14:54:11;;;;;;;1999.90;999.90;;;;;;;;;;4914134;29;20316;-73
2021/10/30 14:56:56;;;;;;;1999.90;999.90;;;;;;;;;;4914145;29;20222;-73
2021/10/30 14:59:41;;;;;;;1999.90;999.90;;;;;;;;;;4914259;29;20250;-72
2021/10/30 15:02:26;;;;;;;1999.90;999.90;;;;;;;;;;4914281;29;20233;-70
2021/10/30 15:05:12;;;;;;;1999.90;999.90;;;;;;;;;;4914384;29;20229;-72
2021/10/30 15:07:57;;;;;;;1999.90;999.90;;;;;;;;;;4913739;29;20461;-73
2021/10/30 15:10:42;;;;;;;1999.90;999.90;;;;;;;;;;4914413;29;20258;-73
2021/10/30 15:13:27;;;;;;;1999.90;999.90;;;;;;;;;;4913617;29;20277;-72
2021/10/30 15:16:12;;;;;;;1999.90;999.90;;;;;;;;;;4914446;29;20218;-73
2021/10/30 15:18:57;;;;;;;1999.90;999.90;;;;;;;;;;4916729;29;20359;-72
2021/10/30 15:21:43;;;;;;;1999.90;999.90;;;;;;;;;;4917587;29;20585;-71
2021/10/30 15:24:28;;;;;;;1999.90;999.90;;;;;;;;;;4919108;29;20223;-72
2021/10/30 15:27:14;;;;;;;1999.90;999.90;;;;;;;;;;4919807;29;20210;-72
2021/10/30 15:29:59;;;;;;;1999.90;999.90;;;;;;;;;;4917686;29;20210;-70
2021/10/30 15:32:44;;;;;;;1999.90;999.90;;;;;;;;;;4917502;29;20803;-72
2021/10/30 15:35:29;;;;;;;1999.90;999.90;;;;;;;;;;4917814;29;20335;-71
2021/10/30 15:38:16;;;;;;;1999.90;999.90;;;;;;;;;;4917862;29;20588;-71
2021/10/30 15:41:00;;;;;;;1999.90;999.90;;;;;;;;;;4917999;29;20202;-71
2021/10/30 15:43:45;;;;;;;1999.90;999.90;;;;;;;;;;4918313;29;20359;-72
2021/10/30 15:46:30;;;;;;;1999.90;999.90;;;;;;;;;;4917939;29;20206;-71
2021/10/30 15:49:15;;;;;;;1999.90;999.90;;;;;;;;;;4917699;29;20693;-71
2021/10/30 15:52:00;;;;;;;1999.90;999.90;;;;;;;;;;4918009;29;20641;-71
2021/10/30 15:54:47;;;;;;;1999.90;999.90;;;;;;;;;;4917327;29;20206;-71
2021/10/30 15:57:32;;;;;;;1999.90;999.90;;;;;;;;;;4916812;29;20217;-71
2021/10/30 16:00:17;;;;;;;1999.90;999.90;;;;;;;;;;4916594;29;20442;-71
2021/10/30 16:03:02;;;;;;;1999.90;999.90;;;;;;;;;;4916890;29;20338;-71
2021/10/30 16:05:47;;;;;;;1999.90;999.90;;;;;;;;;;4916742;29;20307;-71
2021/10/30 16:08:33;;;;;;;1999.90;999.90;;;;;;;;;;4917351;29;20735;-71
2021/10/30 16:11:20;;;;;;;1999.90;999.90;;;;;;;;;;4917347;29;20202;-72
2021/10/30 16:14:05;;;;;;;1999.90;999.90;;;;;;;;;;4916676;29;20241;-71
2021/10/30 16:16:50;;;;;;;1999.90;999.90;;;;;;;;;;4916799;29;20194;-71
2021/10/30 16:19:35;;;;;;;1999.90;999.90;;;;;;;;;;4917037;29;20281;-70
2021/10/30 16:22:20;;;;;;;1999.90;999.90;;;;;;;;;;4916821;29;20228;-70
2021/10/30 16:25:06;;;;;;;1999.90;999.90;;;;;;;;;;4916521;29;20427;-70
2021/10/30 16:27:52;;;;;;;1999.90;999.90;;;;;;;;;;4916496;29;20589;-71
2021/10/30 16:30:37;;;;;;;1999.90;999.90;;;;;;;;;;4916675;29;20587;-71
2021/10/30 16:33:22;;;;;;;1999.90;999.90;;;;;;;;;;4916568;29;20289;-71
2021/10/30 16:36:07;;;;;;;1999.90;999.90;;;;;;;;;;4916029;29;20572;-71
2021/10/30 16:38:52;;;;;;;1999.90;999.90;;;;;;;;;;4916460;29;20699;-71
2021/10/30 16:41:37;;;;;;;1999.90;999.90;;;;;;;;;;4916946;29;20217;-71
2021/10/30 16:44:24;;;;;;;1999.90;999.90;;;;;;;;;;4916204;29;20660;-72
2021/10/30 16:47:09;;;;;;;1999.90;999.90;;;;;;;;;;4916150;29;20206;-71